Time;durP1;ratioP1;P1;durP2;ratioP2;P2;SDS_P1;SDS_P2;PMS_P1;PMS_P2;Temp;Humidity;BMP_temperature;BMP_pressure;BME280_temperature;BME280_humidity;BME280_pressure;Samples;Min_cycle;Max_cycle;Signal;HPM_P1;HPM_P2
2024/03/11 00:01:44;;;;;;;36.28;19.95;;;;;;;2.81;100.00;96655.03;6105393;19;20324;-71
2024/03/11 00:03:44;;;;;;;34.50;19.77;;;;;;;2.79;100.00;96653.81;6107878;19;20034;-71
2024/03/11 00:05:45;;;;;;;29.60;19.25;;;;;;;2.83;100.00;96670.28;6107858;19;20471;-71
2024/03/11 00:07:46;;;;;;;34.40;19.13;;;;;;;2.86;100.00;96670.31;6107406;19;20011;-71
2024/03/11 00:09:48;;;;;;;32.45;19.40;;;;;;;2.86;100.00;96674.97;6105995;19;20291;-71
2024/03/11 00:11:55;;;;;;;30.40;18.70;;;;;;;2.82;100.00;96664.03;6106611;19;20011;-71
2024/03/11 00:13:56;;;;;;;31.48;18.73;;;;;;;2.78;100.00;96653.03;6106997;19;20019;-71
2024/03/11 00:15:56;;;;;;;34.17;18.90;;;;;;;2.79;100.00;96654.59;6108352;19;20408;-71
2024/03/11 00:17:57;;;;;;;29.35;17.30;;;;;;;2.78;100.00;96657.72;6107585;19;20013;-71
2024/03/11 00:19:57;;;;;;;31.38;18.02;;;;;;;2.75;100.00;96648.31;6106400;19;20066;-71
2024/03/11 00:21:59;;;;;;;36.00;19.75;;;;;;;2.74;100.00;96657.69;6105365;19;20007;-71
2024/03/11 00:23:59;;;;;;;36.28;20.42;;;;;;;2.72;100.00;96657.25;6107182;19;20320;-71
2024/03/11 00:26:00;;;;;;;34.97;19.60;;;;;;;2.69;100.00;96655.25;6106195;19;20010;-71
2024/03/11 00:28:01;;;;;;;32.03;19.30;;;;;;;2.69;100.00;96658.00;6106203;19;20002;-71
2024/03/11 00:30:08;;;;;;;33.72;19.73;;;;;;;2.70;100.00;96656.03;6106129;19;20480;-71
2024/03/11 00:32:09;;;;;;;33.70;18.45;;;;;;;2.70;100.00;96656.03;6105719;19;20003;-71
2024/03/11 00:34:10;;;;;;;35.53;20.77;;;;;;;2.72;100.00;96654.50;6105598;19;20003;-71
2024/03/11 00:36:10;;;;;;;34.97;20.35;;;;;;;2.73;100.00;96653.38;6106578;19;20012;-71
2024/03/11 00:38:11;;;;;;;34.53;19.80;;;;;;;2.74;100.00;96646.75;6107508;19;20098;-71
2024/03/11 00:40:13;;;;;;;34.70;19.92;;;;;;;2.77;100.00;96648.72;6104630;19;20007;-71
2024/03/11 00:42:13;;;;;;;39.67;21.40;;;;;;;2.80;100.00;96655.38;6102226;19;20011;-71
2024/03/11 00:44:15;;;;;;;34.05;20.55;;;;;;;2.80;100.00;96642.53;6107069;19;20009;-71
2024/03/11 00:46:15;;;;;;;36.65;19.02;;;;;;;2.85;100.00;96652.34;6112722;19;20002;-71
2024/03/11 00:48:16;;;;;;;34.22;19.45;;;;;;;2.85;100.00;96649.59;6110237;19;20011;-71
2024/03/11 00:50:16;;;;;;;37.60;21.10;;;;;;;2.81;100.00;96638.66;6111996;19;20003;-71
2024/03/11 00:52:17;;;;;;;37.92;21.38;;;;;;;2.79;100.00;96646.41;6111892;19;20036;-71
2024/03/11 00:54:17;;;;;;;37.30;20.35;;;;;;;2.81;100.00;96655.03;6112191;19;20447;-71
2024/03/11 00:56:19;;;;;;;33.05;19.08;;;;;;;2.80;100.00;96644.47;6111979;19;20019;-71
2024/03/11 00:58:19;;;;;;;37.33;21.15;;;;;;;2.80;100.00;96633.53;6111440;19;20323;-71
2024/03/11 01:00:22;;;;;;;38.33;21.50;;;;;;;2.82;100.00;96639.44;6112129;19;20014;-71
2024/03/11 01:02:24;;;;;;;;;;;;;;;2.83;100.00;96651.94;6111645;19;19999;-71
2024/03/11 01:04:24;;;;;;;38.58;20.95;;;;;;;2.83;100.00;96653.88;6112720;19;19915;-71
2024/03/11 01:06:26;;;;;;;39.05;20.63;;;;;;;2.83;100.00;96651.94;6112548;19;20500;-71
2024/03/11 01:08:29;;;;;;;40.95;20.75;;;;;;;2.83;100.00;96654.66;6111159;19;20019;-71
2024/03/11 01:10:29;;;;;;;33.70;18.95;;;;;;;2.85;100.00;96655.06;6111801;19;20006;-71
2024/03/11 01:12:29;;;;;;;33.63;19.33;;;;;;;2.86;100.00;96644.94;6110111;19;20006;-71
2024/03/11 01:14:30;;;;;;;34.28;19.38;;;;;;;2.87;100.00;96650.00;6111800;19;20007;-71
2024/03/11 01:16:30;;;;;;;33.33;19.42;;;;;;;2.88;100.00;96648.06;6111683;19;20839;-71
2024/03/11 01:18:30;;;;;;;36.65;19.85;;;;;;;2.88;100.00;96642.59;6110934;19;20138;-71
2024/03/11 01:20:31;;;;;;;33.63;18.67;;;;;;;2.89;100.00;96638.72;6111001;19;20003;-71
2024/03/11 01:22:31;;;;;;;35.85;19.50;;;;;;;2.88;100.00;96648.84;6108978;19;20010;-71
2024/03/11 01:24:32;;;;;;;34.10;20.23;;;;;;;2.91;100.00;96655.53;6111596;19;20007;-71
2024/03/11 01:26:32;;;;;;;39.03;20.88;;;;;;;2.93;100.00;96658.69;6110701;19;20007;-71
2024/03/11 01:28:33;;;;;;;39.60;21.45;;;;;;;2.94;100.00;96652.06;6110725;19;20013;-71
2024/03/11 01:30:35;;;;;;;36.22;20.27;;;;;;;2.94;100.00;96666.50;6110987;19;20023;-71
2024/03/11 01:32:39;;;;;;;30.73;18.37;;;;;;;2.95;100.00;96664.56;6109812;19;20038;-71
2024/03/11 01:34:42;;;;;;;35.17;20.45;;;;;;;2.96;100.00;96669.63;6110795;19;20010;-71
2024/03/11 01:36:43;;;;;;;34.63;20.35;;;;;;;2.95;100.00;96675.47;6110654;19;20388;-71
2024/03/11 01:38:44;;;;;;;36.28;20.58;;;;;;;2.98;100.00;96678.28;6110381;19;20011;-71
2024/03/11 01:40:44;;;;;;;32.40;20.40;;;;;;;2.99;100.00;96671.66;6111062;19;20013;-71
2024/03/11 01:42:44;;;;;;;39.28;21.63;;;;;;;3.07;100.00;96672.50;6109266;19;20002;-71
2024/03/11 01:44:48;;;;;;;36.15;20.67;;;;;;;3.09;100.00;96653.78;6111318;19;20401;-71
2024/03/11 01:46:52;;;;;;;44.15;22.75;;;;;;;3.12;100.00;96653.03;6109811;19;20016;-71
2024/03/11 01:48:53;;;;;;;40.55;23.40;;;;;;;3.11;100.00;96659.66;6109460;19;20477;-71
2024/03/11 01:50:54;;;;;;;40.40;22.87;;;;;;;3.08;100.00;96669.41;6109301;19;20003;-71
2024/03/11 01:52:56;;;;;;;38.35;22.15;;;;;;;3.04;100.00;96663.09;6109118;19;20007;-71
2024/03/11 01:54:58;;;;;;;38.05;21.67;;;;;;;3.04;100.00;96665.84;6108861;19;20380;-71
2024/03/11 01:57:01;;;;;;;39.20;21.27;;;;;;;3.03;100.00;96655.28;6108851;19;20123;-71
2024/03/11 01:59:02;;;;;;;41.88;22.50;;;;;;;3.06;100.00;96646.31;6109185;19;20007;-71
2024/03/11 02:01:02;;;;;;;42.20;23.25;;;;;;;3.16;100.00;96636.69;6109877;19;20010;-71
2024/03/11 02:03:02;;;;;;;41.55;22.85;;;;;;;3.09;100.00;96642.88;6107691;19;19998;-72
2024/03/11 02:05:05;;;;;;;39.65;22.65;;;;;;;3.07;100.00;96656.13;6109775;19;20011;-71
2024/03/11 02:07:07;;;;;;;41.90;23.02;;;;;;;3.04;100.00;96656.84;6108938;19;20447;-71
2024/03/11 02:09:08;;;;;;;37.97;20.25;;;;;;;3.07;100.00;96665.09;6109603;19;20003;-71
2024/03/11 02:11:09;;;;;;;37.03;21.17;;;;;;;3.09;100.00;96665.50;6110334;19;20005;-71
2024/03/11 02:13:09;;;;;;;40.78;22.42;;;;;;;3.14;100.00;96675.31;6103544;19;20002;-71
2024/03/11 02:15:12;;;;;;;37.95;20.80;;;;;;;3.16;100.00;96678.47;6106788;19;20021;-71
2024/03/11 02:17:14;;;;;;;41.28;20.77;;;;;;;3.20;100.00;96681.25;6110522;19;20739;-71
2024/03/11 02:19:17;;;;;;;34.30;20.58;;;;;;;3.22;100.00;96673.44;6109472;19;20021;-71
2024/03/11 02:21:18;;;;;;;40.25;21.75;;;;;;;3.24;100.00;96674.66;6108175;19;20022;-71
2024/03/11 02:23:20;;;;;;;37.05;21.77;;;;;;;3.41;100.00;96661.56;6109917;19;20761;-71
2024/03/11 02:25:28;;;;;;;40.83;22.38;;;;;;;3.49;100.00;96665.94;6109368;19;20524;-71
2024/03/11 02:27:31;;;;;;;44.45;23.35;;;;;;;3.49;100.00;96676.88;6109998;19;20359;-71
2024/03/11 02:29:32;;;;;;;40.45;22.70;;;;;;;3.45;100.00;96686.97;6109095;19;20010;-71
2024/03/11 02:31:33;;;;;;;42.60;22.63;;;;;;;3.44;100.00;96686.19;6108855;19;20009;-71
2024/03/11 02:33:33;;;;;;;38.10;22.45;;;;;;;3.46;100.00;96691.28;6108473;19;20003;-71
2024/03/11 02:35:33;;;;;;;38.38;21.77;;;;;;;3.46;100.00;96700.25;6108864;19;20002;-71
2024/03/11 02:37:34;;;;;;;37.80;22.70;;;;;;;3.46;100.00;96692.06;6108719;19;20003;-71
2024/03/11 02:39:35;;;;;;;38.88;21.98;;;;;;;3.53;100.00;96705.03;6109264;19;20002;-71
2024/03/11 02:41:36;;;;;;;38.55;22.65;;;;;;;3.51;100.00;96705.41;6107376;19;20450;-71
2024/03/11 02:43:37;;;;;;;36.42;20.73;;;;;;;3.47;100.00;96698.31;6109420;19;20017;-71
2024/03/11 02:45:39;;;;;;;43.13;23.13;;;;;;;3.43;100.00;96709.22;6109514;19;20471;-71
2024/03/11 02:47:39;;;;;;;;;;;;;;;3.40;100.00;96715.44;6109831;19;20013;-71
2024/03/11 02:49:40;;;;;;;34.05;20.58;;;;;;;3.37;100.00;96716.19;6107991;19;19911;-71
2024/03/11 02:51:42;;;;;;;37.65;21.67;;;;;;;3.31;100.00;96725.88;6107774;19;20013;-71
2024/03/11 02:53:42;;;;;;;41.42;23.30;;;;;;;3.27;100.00;96728.56;6108707;19;20459;-71
2024/03/11 02:55:42;;;;;;;40.40;23.23;;;;;;;3.27;100.00;96735.97;6109069;19;20031;-71
2024/03/11 02:57:43;;;;;;;40.40;22.35;;;;;;;3.24;100.00;96739.47;6108409;19;20286;-71
2024/03/11 02:59:43;;;;;;;43.83;24.23;;;;;;;3.21;100.00;96737.47;6108697;19;20431;-71
2024/03/11 03:01:44;;;;;;;44.08;23.33;;;;;;;3.19;100.00;96746.03;6107144;19;20066;-71
2024/03/11 03:03:47;;;;;;;41.67;23.42;;;;;;;3.18;100.00;96752.66;6108340;19;20026;-71
2024/03/11 03:05:47;;;;;;;39.13;21.92;;;;;;;3.17;100.00;96745.63;6107859;19;20009;-71
2024/03/11 03:07:48;;;;;;;41.95;24.17;;;;;;;3.21;100.00;96751.13;6107007;19;20010;-71
2024/03/11 03:09:48;;;;;;;43.75;23.02;;;;;;;3.19;100.00;96753.47;6107563;19;20014;-71
2024/03/11 03:11:48;;;;;;;40.22;23.40;;;;;;;3.22;100.00;96755.44;6106901;19;20013;-71
2024/03/11 03:13:50;;;;;;;41.65;23.88;;;;;;;3.19;100.00;96751.50;6106086;19;20011;-71
2024/03/11 03:15:50;;;;;;;40.17;21.40;;;;;;;3.19;100.00;96748.78;6101450;19;20048;-71
2024/03/11 03:17:51;;;;;;;41.58;23.83;;;;;;;3.19;100.00;96761.66;6101494;19;20003;-71
2024/03/11 03:19:51;;;;;;;43.95;25.48;;;;;;;3.17;100.00;96753.03;6100410;19;20002;-71
2024/03/11 03:21:51;;;;;;;40.92;23.80;;;;;;;3.15;100.00;96756.16;6099230;19;20019;-71
2024/03/11 03:23:52;;;;;;;40.17;22.15;;;;;;;3.16;100.00;96765.94;6101135;19;20534;-71
2024/03/11 03:25:53;;;;;;;38.83;22.27;;;;;;;3.18;100.00;96766.34;6101398;19;20003;-71
2024/03/11 03:27:56;;;;;;;43.08;24.33;;;;;;;3.18;100.00;96771.81;6101248;19;20007;-71
2024/03/11 03:29:56;;;;;;;39.50;22.42;;;;;;;3.20;100.00;96766.75;6100957;19;20006;-71
2024/03/11 03:31:56;;;;;;;39.80;23.27;;;;;;;3.21;100.00;96776.50;6097488;19;20009;-71
2024/03/11 03:33:56;;;;;;;47.70;25.27;;;;;;;3.23;100.00;96774.22;6100128;19;20459;-71
2024/03/11 03:35:58;;;;;;;35.97;20.52;;;;;;;3.21;100.00;96764.78;6100320;19;20015;-71
2024/03/11 03:37:59;;;;;;;41.33;22.75;;;;;;;3.23;100.00;96767.97;6100464;19;20010;-71
2024/03/11 03:40:00;;;;;;;46.28;24.08;;;;;;;3.26;100.00;96772.69;6100824;19;20547;-71
2024/03/11 03:42:00;;;;;;;47.22;24.65;;;;;;;3.25;100.00;96771.91;6094157;19;19999;-71
2024/03/11 03:44:00;;;;;;;41.33;24.63;;;;;;;3.26;100.00;96778.94;6098904;19;20284;-71
2024/03/11 03:46:00;;;;;;;44.72;25.77;;;;;;;3.26;100.00;96769.94;6095195;19;21608;-71
2024/03/11 03:48:01;;;;;;;43.08;24.00;;;;;;;3.27;100.00;96776.97;6096852;19;20660;-72
2024/03/11 03:50:02;;;;;;;42.40;23.15;;;;;;;3.30;100.00;96774.28;6099898;19;20013;-71
2024/03/11 03:52:03;;;;;;;42.78;24.20;;;;;;;3.30;100.00;96779.75;6097939;19;20007;-71
2024/03/11 03:54:05;;;;;;;43.78;23.23;;;;;;;3.31;100.00;96775.88;6100277;19;20025;-71
2024/03/11 03:56:05;;;;;;;46.05;24.67;;;;;;;3.34;100.00;96788.78;6098342;19;20007;-71
2024/03/11 03:58:07;;;;;;;44.33;24.38;;;;;;;3.34;100.00;96786.06;6096542;19;20086;-71
2024/03/11 04:00:17;;;;;;;41.77;23.10;;;;;;;3.36;100.00;96785.69;6098953;19;20483;-71
2024/03/11 04:02:18;;;;;;;42.33;23.90;;;;;;;3.35;100.00;96775.91;6097545;19;20002;-71
2024/03/11 04:04:18;;;;;;;40.45;20.77;;;;;;;3.34;100.00;96782.53;6100105;19;20011;-71
2024/03/11 04:06:20;;;;;;;38.25;21.95;;;;;;;3.36;100.00;96786.47;6099152;19;20007;-71
2024/03/11 04:08:21;;;;;;;38.80;22.70;;;;;;;3.42;100.00;96784.22;6099236;19;20082;-71
2024/03/11 04:10:23;;;;;;;42.00;21.63;;;;;;;3.44;100.00;96790.09;6100392;19;20033;-71
2024/03/11 04:12:24;;;;;;;45.17;23.67;;;;;;;3.45;100.00;96788.13;6098858;19;20066;-71
2024/03/11 04:14:24;;;;;;;35.03;20.90;;;;;;;3.44;100.00;96787.34;6101832;19;20586;-71
2024/03/11 04:16:26;;;;;;;40.65;23.38;;;;;;;3.47;100.00;96780.34;6101936;19;20011;-71
2024/03/11 04:18:27;;;;;;;40.85;23.35;;;;;;;3.48;100.00;96788.19;6097633;19;20011;-71
2024/03/11 04:20:27;;;;;;;43.10;23.52;;;;;;;3.50;100.00;96777.66;6104510;19;20523;-71
2024/03/11 04:22:28;;;;;;;40.83;23.25;;;;;;;3.50;100.00;96776.88;6107606;19;20010;-71
2024/03/11 04:24:29;;;;;;;40.38;21.65;;;;;;;3.51;100.00;96778.44;6111802;19;20014;-71
2024/03/11 04:26:29;;;;;;;41.38;22.85;;;;;;;3.50;100.00;96774.16;6109982;19;20011;-71
2024/03/11 04:28:29;;;;;;;38.03;21.98;;;;;;;3.50;100.00;96783.13;6110218;19;20010;-71
2024/03/11 04:30:40;;;;;;;41.65;22.92;;;;;;;3.52;100.00;96780.81;6111552;19;20014;-71
2024/03/11 04:32:43;;;;;;;34.17;20.15;;;;;;;3.58;100.00;96784.78;6109399;19;20411;-71
2024/03/11 04:34:43;;;;;;;36.97;20.15;;;;;;;3.63;100.00;96791.84;6112242;19;20020;-71
2024/03/11 04:36:43;;;;;;;34.28;19.67;;;;;;;3.66;100.00;96780.19;6112521;19;20007;-71
2024/03/11 04:38:44;;;;;;;31.25;18.77;;;;;;;3.72;100.00;96792.34;6110714;19;20003;-71
2024/03/11 04:40:44;;;;;;;31.25;17.52;;;;;;;3.77;100.00;96785.78;6110417;19;20002;-71
2024/03/11 04:42:45;;;;;;;30.38;17.92;;;;;;;3.86;100.00;96789.00;6110331;19;20009;-71
2024/03/11 04:44:45;;;;;;;30.77;17.42;;;;;;;3.90;100.00;96790.63;6112199;19;20023;-70
2024/03/11 04:46:46;;;;;;;28.42;16.25;;;;;;;3.93;100.00;96791.81;6112032;19;20006;-71
2024/03/11 04:48:46;;;;;;;26.30;14.57;;;;;;;3.95;100.00;96789.47;6111656;19;20009;-71
2024/03/11 04:50:47;;;;;;;28.98;16.55;;;;;;;3.97;100.00;96791.84;6112172;19;20006;-71
2024/03/11 04:52:49;;;;;;;25.08;15.45;;;;;;;3.98;100.00;96791.47;6111226;19;20007;-71
2024/03/11 04:54:50;;;;;;;25.63;15.15;;;;;;;4.00;100.00;96786.41;6111207;19;20037;-71
2024/03/11 04:56:50;;;;;;;28.52;15.25;;;;;;;4.06;100.00;96795.88;6111695;19;20009;-71
2024/03/11 04:58:51;;;;;;;28.85;16.50;;;;;;;4.10;100.00;96795.88;6112411;19;20007;-71
2024/03/11 05:00:51;;;;;;;23.00;14.05;;;;;;;4.14;100.00;96794.78;6111439;19;20006;-71
2024/03/11 05:02:52;;;;;;;26.40;13.73;;;;;;;4.16;100.00;96800.66;6110314;19;20002;-71
2024/03/11 05:04:53;;;;;;;22.23;13.20;;;;;;;4.16;100.00;96808.06;6112811;19;20010;-71
2024/03/11 05:06:53;;;;;;;25.85;15.38;;;;;;;4.16;100.00;96805.34;6111575;19;20023;-71
2024/03/11 05:08:53;;;;;;;26.38;15.10;;;;;;;4.22;100.00;96809.31;6111579;19;20011;-71
2024/03/11 05:10:53;;;;;;;25.15;13.57;;;;;;;4.23;100.00;96808.16;6110510;19;20341;-71
2024/03/11 05:12:54;;;;;;;20.48;12.73;;;;;;;4.24;100.00;96806.97;6109584;19;20091;-70
2024/03/11 05:14:54;;;;;;;23.73;12.75;;;;;;;4.28;100.00;96816.00;6110091;19;20410;-71
2024/03/11 05:16:55;;;;;;;22.73;13.00;;;;;;;4.31;100.00;96817.22;6111632;19;20005;-71
2024/03/11 05:18:55;;;;;;;24.25;12.75;;;;;;;4.30;100.00;96808.19;6112291;19;20002;-71
2024/03/11 05:20:55;;;;;;;24.33;13.00;;;;;;;4.28;100.00;96815.22;6110858;19;20009;-71
2024/03/11 05:22:56;;;;;;;28.00;14.50;;;;;;;4.26;100.00;96826.53;6110059;19;20544;-71
2024/03/11 05:24:56;;;;;;;25.88;13.85;;;;;;;4.22;100.00;96829.25;6111078;19;20011;-71
2024/03/11 05:26:57;;;;;;;24.63;13.95;;;;;;;4.21;100.00;96827.66;6111489;19;20036;-71
2024/03/11 05:28:57;;;;;;;25.35;13.90;;;;;;;4.16;100.00;96833.50;6111660;19;20003;-71
2024/03/11 05:30:58;;;;;;;25.08;13.85;;;;;;;4.14;100.00;96835.03;6109757;19;20685;-71
2024/03/11 05:32:58;;;;;;;25.00;13.15;;;;;;;4.11;100.00;96844.78;6109603;19;20044;-71
2024/03/11 05:34:58;;;;;;;28.55;13.93;;;;;;;4.09;100.00;96846.31;6110462;19;20091;-71
2024/03/11 05:36:59;;;;;;;24.00;13.43;;;;;;;4.04;100.00;96844.69;6111041;19;19998;-71
2024/03/11 05:39:00;;;;;;;27.55;14.57;;;;;;;4.08;100.00;96856.47;6111399;19;20466;-71
2024/03/11 05:41:01;;;;;;;24.70;14.02;;;;;;;4.04;100.00;96843.91;6111063;19;20321;-71
2024/03/11 05:43:02;;;;;;;22.33;12.98;;;;;;;4.03;100.00;96839.59;6110022;19;20007;-71
2024/03/11 05:45:03;;;;;;;19.17;10.95;;;;;;;4.05;100.00;96854.47;6110777;19;20550;-71
2024/03/11 05:47:05;;;;;;;15.98;9.43;;;;;;;4.11;100.00;96852.97;6111419;19;20007;-71
2024/03/11 05:49:08;;;;;;;14.73;8.40;;;;;;;4.16;100.00;96855.41;6111001;19;20079;-71
2024/03/11 05:51:09;;;;;;;13.30;8.10;;;;;;;4.22;100.00;96856.63;6110388;19;20006;-71
2024/03/11 05:53:09;;;;;;;11.30;7.47;;;;;;;4.32;100.00;96862.59;6109873;19;20011;-71
2024/03/11 05:55:13;;;;;;;9.63;6.55;;;;;;;4.34;100.00;96858.31;6108178;19;20025;-71
2024/03/11 05:57:13;;;;;;;10.27;6.68;;;;;;;4.41;100.00;96863.06;6110961;19;20485;-71
2024/03/11 05:59:15;;;;;;;11.23;7.53;;;;;;;4.46;100.00;96876.41;6109357;19;20010;-71
2024/03/11 06:01:17;;;;;;;11.57;7.00;;;;;;;4.45;100.00;96878.34;6109933;19;20355;-71
2024/03/11 06:03:17;;;;;;;6.33;4.60;;;;;;;4.49;100.00;96875.66;6109814;19;20011;-71
2024/03/11 06:05:19;;;;;;;10.02;5.78;;;;;;;4.51;100.00;96874.13;6109961;19;20018;-71
2024/03/11 06:07:24;;;;;;;6.18;4.28;;;;;;;4.50;100.00;96883.50;6110597;19;20010;-71
2024/03/11 06:09:24;;;;;;;6.47;4.40;;;;;;;4.51;100.00;96882.34;6110851;19;20384;-71
2024/03/11 06:11:24;;;;;;;9.02;5.72;;;;;;;4.58;100.00;96881.63;6109299;19;20007;-71
2024/03/11 06:13:25;;;;;;;4.65;3.40;;;;;;;4.61;100.00;96880.84;6109079;19;20009;-71
2024/03/11 06:15:27;;;;;;;5.82;3.78;;;;;;;4.67;100.00;96898.53;6109924;19;20499;-71
2024/03/11 06:17:29;;;;;;;5.22;3.40;;;;;;;4.70;100.00;96892.28;6109919;19;20007;-71
2024/03/11 06:19:29;;;;;;;6.32;3.63;;;;;;;4.71;100.00;96898.53;6110483;19;20007;-71
2024/03/11 06:21:30;;;;;;;5.50;3.50;;;;;;;4.72;100.00;96894.66;6107141;19;20014;-71
2024/03/11 06:23:32;;;;;;;4.75;3.58;;;;;;;4.72;100.00;96894.66;6109330;19;20010;-71
2024/03/11 06:25:32;;;;;;;5.38;3.35;;;;;;;4.72;100.00;96895.44;6110451;19;20018;-71
2024/03/11 06:27:32;;;;;;;5.05;3.35;;;;;;;4.73;100.00;96902.50;6109150;19;20011;-71
2024/03/11 06:29:33;;;;;;;4.25;2.80;;;;;;;4.78;100.00;96904.09;6109615;19;20062;-71
2024/03/11 06:31:36;;;;;;;2.90;2.30;;;;;;;4.89;100.00;96907.72;6108806;19;20010;-71
2024/03/11 06:33:37;;;;;;;2.80;2.22;;;;;;;4.89;100.00;96906.94;6110305;19;20658;-71
2024/03/11 06:35:37;;;;;;;2.83;2.20;;;;;;;4.87;100.00;96912.00;6109701;19;20007;-71
2024/03/11 06:37:37;;;;;;;3.55;2.47;;;;;;;4.88;100.00;96919.06;6108913;19;20002;-71
2024/03/11 06:39:39;;;;;;;4.72;3.03;;;;;;;4.91;100.00;96923.78;6110419;19;20014;-71
2024/03/11 06:41:39;;;;;;;6.20;2.90;;;;;;;4.92;100.00;96926.16;6106034;19;20007;-71
2024/03/11 06:43:40;;;;;;;3.15;2.50;;;;;;;4.91;100.00;96926.53;6107749;19;20026;-71
2024/03/11 06:45:41;;;;;;;3.55;2.55;;;;;;;4.93;100.00;96930.47;6110272;19;20333;-71
2024/03/11 06:47:41;;;;;;;2.25;2.05;;;;;;;4.93;100.00;96930.47;6109959;19;20353;-71
2024/03/11 06:49:42;;;;;;;3.45;2.55;;;;;;;4.93;100.00;96932.41;6109662;19;20007;-71
2024/03/11 06:51:42;;;;;;;4.80;2.40;;;;;;;5.01;100.00;96931.31;6107640;19;20062;-71
2024/03/11 06:53:42;;;;;;;3.15;2.50;;;;;;;5.05;100.00;96945.84;6109179;19;20016;-71
2024/03/11 06:55:43;;;;;;;3.67;2.30;;;;;;;5.13;100.00;96947.47;6109339;19;20389;-71
2024/03/11 06:57:44;;;;;;;5.03;2.60;;;;;;;5.13;100.00;96941.19;6108133;19;20007;-71
2024/03/11 06:59:45;;;;;;;4.68;2.38;;;;;;;5.20;100.00;96946.72;6109708;19;20006;-71
2024/03/11 07:01:45;;;;;;;2.78;2.17;;;;;;;5.20;100.00;96958.50;6106887;19;20321;-71
2024/03/11 07:03:45;;;;;;;3.05;2.25;;;;;;;5.24;100.00;96955.78;6108738;19;20393;-71
2024/03/11 07:05:46;;;;;;;5.07;2.50;;;;;;;5.31;100.00;96964.06;6108704;19;20005;-71
2024/03/11 07:07:46;;;;;;;5.63;3.25;;;;;;;5.34;100.00;96949.59;6109660;19;19995;-71
2024/03/11 07:09:46;;;;;;;3.75;2.70;;;;;;;5.38;100.00;96960.56;6108146;19;20329;-71
2024/03/11 07:11:47;;;;;;;4.72;2.47;;;;;;;5.38;100.00;96958.66;6106517;19;20074;-71
2024/03/11 07:13:47;;;;;;;4.22;2.80;;;;;;;5.45;100.00;96975.13;6101209;19;20562;-71
2024/03/11 07:15:48;;;;;;;5.32;2.85;;;;;;;5.46;100.00;96978.66;6108119;19;20003;-71
2024/03/11 07:17:48;;;;;;;4.38;2.70;;;;;;;5.38;100.00;96969.63;6108835;19;20010;-71
2024/03/11 07:19:49;;;;;;;5.55;2.83;;;;;;;5.42;100.00;96983.34;6108795;19;20007;-71
2024/03/11 07:21:49;;;;;;;4.05;2.78;;;;;;;5.45;100.00;96994.34;6106652;19;19999;-71
2024/03/11 07:23:50;;;;;;;3.15;2.53;;;;;;;5.46;100.00;97003.34;6107772;19;20006;-71
2024/03/11 07:25:50;;;;;;;4.78;2.90;;;;;;;5.47;100.00;96999.47;6107761;19;20003;-71
2024/03/11 07:27:50;;;;;;;3.40;2.60;;;;;;;5.51;100.00;97003.00;6107847;19;20885;-71
2024/03/11 07:29:50;;;;;;;4.15;2.50;;;;;;;5.53;100.00;96989.69;6108638;19;19998;-71
2024/03/11 07:31:53;;;;;;;2.65;2.00;;;;;;;5.51;100.00;96997.53;6106945;19;20011;-71
2024/03/11 07:33:54;;;;;;;3.20;2.20;;;;;;;5.55;100.00;97009.31;6106368;19;20018;-71
2024/03/11 07:35:54;;;;;;;3.05;2.15;;;;;;;5.51;100.00;97022.22;6108318;19;20002;-71
2024/03/11 07:37:55;;;;;;;3.10;2.33;;;;;;;5.51;100.00;97008.50;6107823;19;19999;-71
2024/03/11 07:39:56;;;;;;;2.80;2.08;;;;;;;5.51;100.00;97009.28;6107403;19;20019;-71
2024/03/11 07:41:57;;;;;;;2.60;2.00;;;;;;;5.52;100.00;97018.28;6106746;19;20022;-71
2024/03/11 07:43:57;;;;;;;3.22;2.30;;;;;;;5.56;100.00;97027.34;6107534;19;20003;-71
2024/03/11 07:45:58;;;;;;;2.75;1.98;;;;;;;5.60;100.00;97030.91;6106956;19;20007;-71
2024/03/11 07:47:58;;;;;;;2.90;2.10;;;;;;;5.63;100.00;97022.72;6108620;19;20320;-71
2024/03/11 07:49:58;;;;;;;2.10;1.83;;;;;;;5.69;100.00;97042.34;6107968;19;20045;-71
2024/03/11 07:51:59;;;;;;;3.03;2.15;;;;;;;5.78;100.00;97039.25;6105263;19;19998;-71
2024/03/11 07:54:00;;;;;;;2.03;1.77;;;;;;;5.80;100.00;97045.97;6111019;19;20013;-71
2024/03/11 07:56:03;;;;;;;2.40;1.98;;;;;;;5.86;100.00;97049.13;6113050;19;20347;-71
2024/03/11 07:58:04;;;;;;;3.60;2.35;;;;;;;5.89;100.00;97057.41;6111988;19;20017;-71
2024/03/11 08:00:05;;;;;;;2.35;2.15;;;;;;;5.98;100.00;97068.06;6112569;19;20268;-71
2024/03/11 08:02:07;;;;;;;2.60;2.10;;;;;;;6.03;100.00;97067.69;6111286;19;20450;-71
2024/03/11 08:04:09;;;;;;;3.30;2.15;;;;;;;6.09;100.00;97068.94;6111276;19;20010;-71
2024/03/11 08:06:10;;;;;;;2.50;1.88;;;;;;;6.14;100.00;97065.81;6112723;19;20020;-71
2024/03/11 08:08:12;;;;;;;3.42;2.38;;;;;;;6.17;100.00;97083.50;6111560;19;20025;-71
2024/03/11 08:10:13;;;;;;;2.40;2.00;;;;;;;6.13;100.00;97086.22;6112431;19;20010;-71
2024/03/11 08:12:13;;;;;;;2.50;1.73;;;;;;;6.12;100.00;97097.56;6110943;19;20010;-71
2024/03/11 08:14:15;;;;;;;3.00;2.13;;;;;;;6.08;100.00;97099.53;6108023;19;20027;-71
2024/03/11 08:16:15;;;;;;;2.35;1.73;;;;;;;6.10;100.00;97102.66;6105799;19;20007;-71
2024/03/11 08:18:16;;;;;;;2.33;1.80;;;;;;;6.10;100.00;97103.44;6105871;19;19999;-71
2024/03/11 08:20:18;;;;;;;2.30;1.80;;;;;;;6.17;100.00;97102.72;6102319;19;20006;-71
2024/03/11 08:22:18;;;;;;;2.55;1.50;;;;;;;6.21;100.00;97109.03;6103302;19;20074;-71
2024/03/11 08:24:19;;;;;;;1.67;1.45;;;;;;;6.28;100.00;97089.81;6104786;19;20111;-71
2024/03/11 08:26:19;;;;;;;2.63;1.70;;;;;;;6.35;100.00;97095.38;6105626;19;20010;-71
2024/03/11 08:28:20;;;;;;;2.92;2.13;;;;;;;6.43;100.00;97102.47;6106228;19;19999;-71
2024/03/11 08:30:27;;;;;;;3.42;2.50;;;;;;;6.45;100.00;97096.59;6105452;19;23686;-71
2024/03/11 08:32:27;;;;;;;3.42;1.58;;;;;;;6.49;100.00;97102.91;6104238;19;20494;-71
2024/03/11 08:34:28;;;;;;;1.63;1.40;;;;;;;6.61;100.00;97104.53;6105760;19;20267;-71
2024/03/11 08:36:28;;;;;;;2.03;1.63;;;;;;;6.61;100.00;97101.78;6104707;19;20103;-71
2024/03/11 08:38:28;;;;;;;2.95;2.25;;;;;;;6.65;100.00;97102.59;6104400;19;20331;-71
2024/03/11 08:40:28;;;;;;;2.38;1.63;;;;;;;6.73;100.00;97095.97;6104816;19;20007;-71
2024/03/11 08:42:29;;;;;;;2.00;1.50;;;;;;;6.82;100.00;97101.88;6103315;19;20013;-71
2024/03/11 08:44:29;;;;;;;2.30;1.67;;;;;;;6.84;100.00;97107.78;6104822;19;20325;-71
2024/03/11 08:46:30;;;;;;;2.95;1.95;;;;;;;6.88;100.00;97096.81;6105098;19;20006;-71
2024/03/11 08:48:30;;;;;;;2.13;1.40;;;;;;;6.89;100.00;97103.88;6105209;19;20505;-71
2024/03/11 08:50:30;;;;;;;3.67;2.63;;;;;;;6.97;100.00;97108.25;6105470;19;20495;-71
2024/03/11 08:52:31;;;;;;;3.45;2.10;;;;;;;7.04;100.00;97111.03;6103757;19;20074;-71
2024/03/11 08:54:31;;;;;;;1.83;1.50;;;;;;;7.02;100.00;97107.84;6104818;19;20348;-71
2024/03/11 08:56:32;;;;;;;1.90;1.30;;;;;;;7.06;100.00;97113.38;6105278;19;20459;-71
2024/03/11 08:58:32;;;;;;;2.10;1.52;;;;;;;7.09;100.00;97113.38;6105583;19;20360;-71
2024/03/11 09:00:36;;;;;;;2.50;1.80;;;;;;;7.12;100.00;97123.63;6105366;19;20006;-71
2024/03/11 09:02:36;;;;;;;2.80;1.90;;;;;;;7.13;100.00;97136.19;6103703;19;20026;-71
2024/03/11 09:04:36;;;;;;;3.22;2.00;;;;;;;7.20;100.00;97135.41;6105085;19;20002;-71
2024/03/11 09:06:41;;;;;;;2.75;1.90;;;;;;;7.20;100.00;97127.16;6104184;19;20010;-71
2024/03/11 09:08:44;;;;;;;3.83;2.30;;;;;;;7.25;100.00;97137.78;6105303;19;20078;-71
2024/03/11 09:10:45;;;;;;;3.60;2.67;;;;;;;7.25;100.00;97133.06;6105563;19;20026;-71
2024/03/11 09:12:45;;;;;;;3.10;2.13;;;;;;;7.16;100.00;97135.41;6103088;19;20010;-70
2024/03/11 09:14:47;;;;;;;2.25;1.70;;;;;;;7.24;100.00;97145.25;6109712;19;20014;-71
2024/03/11 09:16:47;;;;;;;2.57;1.90;;;;;;;7.36;100.00;97148.81;6112710;19;20011;-71
2024/03/11 09:18:47;;;;;;;2.05;1.63;;;;;;;7.44;100.00;97150.41;6111515;19;20041;-71
2024/03/11 09:20:49;;;;;;;3.30;1.95;;;;;;;7.51;100.00;97145.72;6111958;19;20466;-71
2024/03/11 09:22:52;;;;;;;3.03;2.20;;;;;;;7.56;100.00;97153.59;6109723;19;20472;-71